• Join FlightAware (Why Join?)
  • Login
  • US Flag 
11:33AM EDT


 

Airport Tracker/Info


-or-


 

Live Flight TrackerFlight Track Log ✈ RPA3159 ✈ 06-Jul-2013 ✈ KPHL - KMSP

Flight Track Log - Related Links

Times and Time Zones

All times are in EDT time to prevent confusion due to time zone crossing. See the RPA3159 flight status page for this flight to view local times or setup timezone preferences in your user account.

Time Position Orientation Groundspeed Altitude Reporting Facility
EDT Latitude Longitude Course Direction KTS MPH feet Rate Location/Type
02:01PM 39.8667 -75.2833 307° West 159 183 900  Level Philadelphia TRACON
02:02PM 39.8500 -75.3500 252° West 196 226 2,000 1,380 Climbing Philadelphia TRACON
02:03PM 40.1036 -75.4536 323° Northwest  Level FlightAware Approximate
02:03PM 39.8333 -75.4333 255° West 265 305 3,800  Level Philadelphia TRACON
02:04PM 40.1854 -75.5354 323° Northwest  Level FlightAware Approximate
02:04PM 39.8500 -75.5167 285° West 275 316 6,500  Level Philadelphia TRACON
02:05PM 40.2614 -75.6171 311° West  Level FlightAware Approximate
02:05PM 39.9500 -75.5167 360° North 287 330 9,400  Level Philadelphia TRACON
02:06PM 40.3281 -75.7200 307° West  Level FlightAware Approximate
02:07PM 40.0817 -75.5431 351° North 331 381 12,600  Level New York Center
02:08PM 40.1644 -75.5542 354° North 331 381 13,300 1,440 Climbing New York Center
02:09PM 40.2561 -75.6094 335° Northwest 330 380 15,500 1,800 Climbing New York Center
02:10PM 40.3169 -75.7008 311° West 330 380 17,000 840 Climbing New York Center
02:11PM 40.3717 -75.7864 310° West 330 380 17,200 480 Climbing New York Center
02:12PM 40.4322 -75.8808 310° West 341 392 18,000 960 Climbing New York Center
02:13PM 40.4561 -75.9997 285° West 341 392 19,200 1,440 Climbing New York Center
02:14PM 40.4756 -76.1242 282° West 341 392 20,900 1,620 Climbing New York Center
02:15PM 40.4969 -76.2486 283° West 346 398 22,500 1,380 Climbing New York Center
02:16PM 40.5158 -76.3783 281° West 356 410 23,800 1,320 Climbing New York Center
02:17PM 40.5364 -76.5139 281° West 366 421 25,200 1,200 Climbing New York Center
02:18PM 40.5633 -76.6447 285° West 372 428 26,300 1,020 Climbing New York Center
02:19PM 40.6003 -76.7819 290° West 386 444 27,300 900 Climbing New York Center
02:20PM 40.6350 -76.9161 289° West 391 450 28,200 900 Climbing New York Center
02:21PM 40.6717 -77.0536 289° West 391 450 29,100 780 Climbing New York Center
02:22PM 40.7097 -77.1967 289° West 397 457 29,800 420 Climbing New York Center
02:23PM 40.7492 -77.3539 288° West 407 468 30,000 60 Climbing New York Center
02:24PM 40.7856 -77.4833 290° West 414 476 30,000  Level New York Center
02:25PM 40.8442 -77.7147 289° West 434 499 30,000  Level Cleveland Center
02:26PM 40.8811 -77.8586 289° West 434 499 30,000  Level Cleveland Center
02:27PM 40.9158 -78.0083 287° West 434 499 30,000  Level Cleveland Center
02:28PM 40.9358 -78.1589 280° West 428 493 30,000  Level Cleveland Center
02:29PM 40.9578 -78.3119 281° West 428 493 30,000  Level Cleveland Center
02:30PM 40.9753 -78.4628 279° West 428 493 30,000  Level Cleveland Center
02:31PM 40.9944 -78.6133 280° West 428 493 30,000  Level Cleveland Center
02:32PM 41.0117 -78.7669 279° West 428 493 30,000  Level Cleveland Center
02:33PM 41.0286 -78.9150 279° West 422 486 30,000  Level Cleveland Center
02:34PM 41.0453 -79.0661 278° West 422 486 30,000  Level Cleveland Center
02:35PM 41.0639 -79.2172 279° West 422 486 30,000  Level Cleveland Center
02:36PM 41.0800 -79.3683 278° West 422 486 30,000  Level Cleveland Center
02:37PM 41.0983 -79.5167 279° West 422 486 30,000  Level Cleveland Center
02:38PM 41.1142 -79.6653 278° West 422 486 30,000  Level Cleveland Center
02:39PM 41.1300 -79.8361 277° West 422 486 30,000  Level Cleveland Center
02:40PM 41.1433 -79.9683 278° West 422 486 30,000  Level Cleveland Center
02:41PM 41.1628 -80.1197 280° West 422 486 30,000  Level Cleveland Center
02:42PM 41.1778 -80.2686 278° West 422 486 30,000  Level Cleveland Center
02:43PM 41.1947 -80.4369 278° West 422 486 30,000  Level Cleveland Center
02:44PM 41.2075 -80.5694 277° West 422 486 30,000  Level Cleveland Center
02:45PM 41.2219 -80.7211 277° West 422 486 30,000  Level Cleveland Center
02:46PM 41.2383 -80.8731 278° West 422 486 30,000  Level Cleveland Center
02:47PM 41.2525 -81.0222 277° West 422 486 30,000  Level Cleveland Center
02:48PM 41.2850 -81.1717 286° West 417 480 30,000  Level Cleveland Center
02:49PM 41.3344 -81.3103 295° West 417 480 30,000  Level Cleveland Center
02:50PM 41.3917 -81.4550 298° West 412 474 30,000  Level Cleveland Center
02:51PM 41.4344 -81.5775 295° West 402 463 30,000  Level Cleveland Center
02:52PM 41.4853 -81.7167 296° West 408 470 30,000  Level Cleveland Center
02:53PM 41.5422 -81.8481 300° West 408 470 30,000  Level Cleveland Center
02:54PM 41.6139 -81.9689 308° West 414 476 30,000  Level Cleveland Center
02:55PM 41.6875 -82.0903 309° West 419 482 30,000  Level Cleveland Center
02:56PM 41.7586 -82.2089 309° West 419 482 30,000  Level Cleveland Center
02:57PM 41.8319 -82.3278 310° West 419 482 30,000  Level Cleveland Center
02:58PM 41.8989 -82.4522 306° West 419 482 30,000  Level Cleveland Center
02:59PM 41.9739 -82.5800 308° West 419 482 30,000  Level Cleveland Center
03:00PM 42.0236 -82.7158 296° West 419 482 30,000  Level Cleveland Center
03:01PM 42.0583 -82.8569 288° West 402 463 30,000  Level Cleveland Center
03:02PM 42.0908 -83.0008 287° West 397 457 30,000  Level Cleveland Center
03:03PM 42.1253 -83.1419 288° West 397 457 30,000  Level Cleveland Center
03:04PM 42.1611 -83.3058 286° West 410 472 30,000  Level Cleveland Center
03:05PM 42.1972 -83.4533 288° West 410 472 30,000  Level Cleveland Center
03:06PM 42.2289 -83.6006 286° West 410 472 30,000  Level Cleveland Center
03:07PM 42.2625 -83.7453 287° West 420 483 30,000  Level Cleveland Center
03:08PM 42.2958 -83.8872 288° West 407 468 30,000  Level Cleveland Center
03:09PM 42.3294 -84.0294 288° West 402 463 30,000  Level Cleveland Center
03:10PM 42.3603 -84.1747 286° West 402 463 30,000  Level Cleveland Center
03:12PM 42.4094 -84.3917 287° West 404 465 30,000  Level Chicago Center
03:13PM 42.4450 -84.5339 289° West 402 463 30,000  Level Chicago Center
03:14PM 42.4950 -84.6739 296° West 413 475 30,000  Level Chicago Center
03:15PM 42.5458 -84.8136 296° West 415 478 30,000  Level Chicago Center
03:16PM 42.5953 -84.9544 296° West 415 478 30,000  Level Chicago Center
03:17PM 42.6453 -85.0964 296° West 417 480 30,000  Level Chicago Center
03:18PM 42.7053 -85.2664 296° West 417 480 30,000  Level Chicago Center
03:19PM 42.7547 -85.4081 295° West 416 479 30,000  Level Chicago Center
03:20PM 42.7936 -85.5547 290° West 414 476 30,000  Level Chicago Center
03:21PM 42.8133 -85.7064 280° West 407 468 30,000  Level Chicago Center
03:22PM 42.8331 -85.8594 280° West 408 470 30,000  Level Chicago Center
03:23PM 42.8522 -86.0131 280° West 405 466 30,000  Level Chicago Center
03:24PM 42.8717 -86.1656 280° West 402 463 30,000  Level Chicago Center
03:25PM 42.8900 -86.3178 279° West 403 464 30,000  Level Chicago Center
03:26PM 42.9125 -86.4983 280° West 404 465 30,000  Level Chicago Center
03:27PM 42.9317 -86.6472 280° West 401 461 30,000  Level Chicago Center
03:28PM 42.9494 -86.7983 279° West 403 464 30,000  Level Chicago Center
03:29PM 42.9681 -86.9503 280° West 405 466 30,000  Level Chicago Center
03:30PM 42.9858 -87.1019 279° West 406 467 30,000  Level Chicago Center
03:31PM 43.0028 -87.2544 279° West 407 468 30,000  Level Chicago Center
03:32PM 43.0217 -87.4178 279° West 407 468 30,000  Level Chicago Center
03:33PM 43.0386 -87.5700 279° West 405 466 30,000  Level Chicago Center
03:34PM 43.0597 -87.7486 279° West 407 468 30,000  Level Chicago Center
03:35PM 43.1186 -87.8878 300° West 423 487 30,000  Level Chicago Center
03:36PM 43.1833 -88.0203 304° West 421 484 30,000 -480 Level Chicago Center
03:37PM 43.2467 -88.1553 303° West 418 481 29,100 -1,020 Descending Chicago Center
03:38PM 43.3097 -88.2883 303° West 416 479 28,000 -540 Descending Chicago Center
03:40PM 43.3719 -88.4203 303° West 410 472 28,000  Level Chicago Center
03:41PM 43.4411 -88.5661 303° West 421 484 28,000  Level Chicago Center
03:42PM 43.5017 -88.7000 302° West 417 480 28,000  Level Chicago Center
03:43PM 43.5736 -88.8542 303° West 410 472 28,000  Level Chicago Center
03:44PM 43.6336 -88.9869 302° West 409 471 28,000  Level Chicago Center
03:45PM 43.6964 -89.1222 303° West 417 480 28,000  Level Chicago Center
03:46PM 43.7575 -89.2578 302° West 417 480 28,000  Level Chicago Center
03:47PM 43.8192 -89.3925 302° West 416 479 28,000  Level Chicago Center
03:48PM 43.8808 -89.5267 303° West 414 476 28,000  Level Chicago Center
03:49PM 43.9519 -89.6856 302° West 415 478 28,000  Level Chicago Center
03:50PM 44.0128 -89.8214 302° West 415 478 28,000  Level Chicago Center
03:51PM 44.0731 -89.9569 302° West 414 476 28,000  Level Chicago Center
03:52PM 44.1433 -90.0822 308° West 410 472 28,000  Level Chicago Center
03:53PM 44.2128 -90.2086 308° West 411 473 28,000  Level Chicago Center
03:54PM 44.2869 -90.3428 308° West 408 470 28,000  Level Chicago Center
03:55PM 44.3544 -90.4656 308° West 404 465 28,000 -240 Level Chicago Center
03:56PM 44.4233 -90.5919 307° West 411 473 27,600 -1,140 Descending Chicago Center
03:57PM 44.5100 -90.7514 307° West 401 461 25,500 -1,680 Descending Minneapolis Center
03:58PM 44.5747 -90.8714 307° West 388 447 23,900 -1,500 Descending Minneapolis Center
03:59PM 44.6347 -90.9817 307° West 378 435 22,500 -1,500 Descending Minneapolis Center
04:00PM 44.6969 -91.0967 307° West 375 432 20,900 -1,620 Descending Minneapolis Center
04:01PM 44.7672 -91.2331 306° West 365 420 19,200 -1,620 Descending Minneapolis Center
04:02PM 44.8122 -91.3714 295° West 393 452 17,600 -1,560 Descending Minneapolis Center
04:03PM 44.8508 -91.5125 291° West 393 452 16,100 -1,500 Descending Minneapolis Center
04:04PM 44.8839 -91.6486 289° West 378 435 14,500 -1,500 Descending Minneapolis Center
04:05PM 44.9206 -91.7825 291° West 370 426 13,100 -1,440 Descending Minneapolis Center
04:06PM 44.9542 -91.9131 290° West 357 411 11,600 -1,020 Descending Minneapolis Center
04:07PM 44.9919 -92.0625 290° West 340 391 11,100 -300 Descending Minneapolis Center
04:09PM 45.0233 -92.1892 289° West 343 395 11,100  Level Minneapolis Center
04:10PM 45.0447 -92.3153 284° West 337 388 11,100 -60 Level Minneapolis Center
04:11PM 45.0250 -92.4461 258° West 340 391 11,000 -60 Descending Minneapolis Center
04:12PM 45.0044 -92.5747 257° West 337 388 11,000  Level Minneapolis Center
04:13PM 44.9836 -92.7036 257° West 337 388 11,000  Level Minneapolis Center
04:14PM 44.9675 -92.8058 257° West 337 388 11,000 -120 Level Minneapolis Center
04:15PM 44.9389 -92.9814 257° West 331 381 10,800 -540 Descending Minneapolis Center
04:16PM 44.9369 -93.0836 268° West 276 318 9,900 -1,560 Descending Minneapolis Center
04:17PM 44.9806 -93.1697 306° West 273 314 7,600 -1,920 Descending Minneapolis Center
04:18PM 45.0247 -93.2511 308° West 265 305 6,000 -1,500 Descending Minneapolis Center
04:19PM 45.0531 -93.3269 298° West 229 264 4,600 -1,020 Descending Minneapolis Center
04:20PM 45.0056 -93.3553 203° Southwest 181 208 3,900 -720 Descending Minneapolis Center